Time;durP1;ratioP1;P1;durP2;ratioP2;P2;SDS_P1;SDS_P2;PMS_P1;PMS_P2;Temp;Humidity;BMP_temperature;BMP_pressure;BME280_temperature;BME280_humidity;BME280_pressure;Samples;Min_cycle;Max_cycle;Signal;HPM_P1;HPM_P2
2021/11/22 00:01:10;;;;;;;2.95;1.23;;;;;;;7.93;61.64;101882.47;4947227;28;124802;-72
2021/11/22 00:03:38;;;;;;;4.50;1.25;;;;;;;7.94;61.81;101881.56;4914970;28;118819;-73
2021/11/22 00:06:05;;;;;;;4.35;1.50;;;;;;;7.95;61.90;101885.97;4948730;28;119407;-73
2021/11/22 00:08:33;;;;;;;2.78;1.17;;;;;;;7.97;61.85;101883.31;4930200;28;124092;-73
2021/11/22 00:11:00;;;;;;;6.25;1.42;;;;;;;7.97;61.53;101881.53;4929499;28;124007;-73
2021/11/22 00:13:27;;;;;;;5.38;1.35;;;;;;;7.98;61.81;101888.53;4947703;28;120323;-73
2021/11/22 00:15:55;;;;;;;4.03;1.10;;;;;;;7.97;61.72;101892.06;4947911;28;119906;-73
2021/11/22 00:18:22;;;;;;;3.83;1.30;;;;;;;7.98;61.50;101888.53;4928591;28;123936;-73
2021/11/22 00:20:50;;;;;;;2.13;0.93;;;;;;;7.98;61.73;101893.81;4948042;28;124060;-72
2021/11/22 00:23:18;;;;;;;5.32;1.50;;;;;;;7.99;61.80;101900.84;4930587;28;120591;-73
2021/11/22 00:25:45;;;;;;;2.03;1.20;;;;;;;8.01;61.81;101902.59;4948717;28;119455;-72
2021/11/22 00:28:12;;;;;;;2.70;1.20;;;;;;;8.01;61.79;101907.84;4928463;28;123890;-73
2021/11/22 00:30:58;;;;;;;6.22;1.48;;;;;;;8.01;61.58;101918.41;4948768;28;124721;-73
2021/11/22 00:33:35;;;;;;;4.45;1.63;;;;;;;7.99;61.77;101911.38;4927631;28;118763;-73
2021/11/22 00:36:14;;;;;;;4.20;1.20;;;;;;;7.98;61.70;101914.03;4923417;28;119438;-73
2021/11/22 00:38:41;;;;;;;4.97;1.30;;;;;;;7.98;61.58;101921.97;4947490;28;123770;-73
2021/11/22 00:41:08;;;;;;;4.07;1.15;;;;;;;7.95;61.63;101924.66;4930179;28;123135;-73
2021/11/22 00:43:35;;;;;;;2.20;1.17;;;;;;;7.94;61.60;101918.50;4946963;28;119457;-73
2021/11/22 00:46:02;;;;;;;4.53;1.35;;;;;;;7.95;61.91;101930.81;4947687;28;118941;-73
2021/11/22 00:48:30;;;;;;;4.00;1.38;;;;;;;7.95;61.77;101933.44;4947774;28;124024;-73
2021/11/22 00:50:57;;;;;;;4.00;1.30;;;;;;;7.93;61.88;101937.88;4945490;28;123801;-73
2021/11/22 00:53:24;;;;;;;3.70;1.42;;;;;;;7.92;61.70;101938.75;4949450;28;120037;-73
2021/11/22 00:55:51;;;;;;;2.72;1.35;;;;;;;7.91;61.81;101947.59;4946764;28;121520;-73
2021/11/22 00:58:18;;;;;;;3.47;1.38;;;;;;;7.90;61.92;101945.81;4948265;28;124635;-73
2021/11/22 01:00:45;;;;;;;3.05;1.50;;;;;;;7.91;62.00;101958.13;4921940;28;123719;-73
2021/11/22 01:03:13;;;;;;;6.30;1.30;;;;;;;7.90;62.14;101958.16;4927325;28;120136;-73
2021/11/22 01:05:41;;;;;;;3.88;1.33;;;;;;;7.90;61.77;101964.28;4947676;28;120671;-73
2021/11/22 01:08:08;;;;;;;2.78;1.40;;;;;;;7.90;61.72;101969.56;4946071;28;124040;-73
2021/11/22 01:10:38;;;;;;;2.65;1.17;;;;;;;7.90;62.13;101969.56;4946031;28;124858;-73
2021/11/22 01:13:06;;;;;;;3.22;1.40;;;;;;;7.90;62.08;101974.84;4930103;28;119132;-73
2021/11/22 01:15:34;;;;;;;4.47;1.50;;;;;;;7.90;61.97;101982.75;4947645;28;118738;-73
2021/11/22 01:18:02;;;;;;;2.15;1.25;;;;;;;7.90;62.14;101985.38;4947236;28;123990;-73
2021/11/22 01:20:31;;;;;;;3.42;1.20;;;;;;;7.89;61.77;101983.66;4927479;28;123340;-73
2021/11/22 01:23:05;;;;;;;4.10;1.40;;;;;;;7.89;61.93;101981.03;4930216;28;119463;-73
2021/11/22 01:25:32;;;;;;;5.32;1.40;;;;;;;7.89;61.81;101988.94;4930215;28;118397;-72
2021/11/22 01:28:00;;;;;;;5.25;1.40;;;;;;;7.90;62.19;101989.81;4945698;28;124997;-73
2021/11/22 01:30:27;;;;;;;2.85;1.30;;;;;;;7.89;61.97;101994.22;4929409;28;123157;-73
2021/11/22 01:32:54;;;;;;;3.53;1.45;;;;;;;7.87;61.77;101993.34;4929887;28;119394;-73
2021/11/22 01:35:22;;;;;;;3.80;1.77;;;;;;;7.86;62.04;101999.53;4945623;28;119709;-73
2021/11/22 01:37:50;;;;;;;3.95;1.50;;;;;;;7.86;61.88;102001.31;4929657;28;123949;-73
2021/11/22 01:40:21;;;;;;;3.70;1.17;;;;;;;7.85;61.85;102008.31;4946014;28;123549;-73
2021/11/22 01:42:50;;;;;;;5.28;1.30;;;;;;;7.85;62.10;102016.22;4944107;28;119286;-73
2021/11/22 01:45:19;;;;;;;3.92;2.13;;;;;;;7.85;62.03;102024.13;4946156;28;119010;-73
2021/11/22 01:47:47;;;;;;;3.10;1.17;;;;;;;7.86;61.97;102025.03;4927525;28;123398;-73
2021/11/22 01:50:20;;;;;;;4.60;1.35;;;;;;;7.85;61.89;102018.88;4944288;28;124225;-73
2021/11/22 01:52:50;;;;;;;2.95;1.30;;;;;;;7.86;61.81;102025.91;4946428;28;120113;-73
2021/11/22 01:55:20;;;;;;;3.10;1.58;;;;;;;7.86;62.43;102031.19;4929752;28;120113;-73
2021/11/22 01:57:50;;;;;;;4.82;1.20;;;;;;;7.86;62.32;102031.19;4911860;28;122827;-73
2021/11/22 02:00:20;;;;;;;3.05;1.20;;;;;;;7.86;62.09;102032.94;4929280;28;124063;-73
2021/11/22 02:02:47;;;;;;;6.72;1.10;;;;;;;7.86;61.99;102031.19;4947146;28;119106;-73
2021/11/22 02:05:16;;;;;;;6.25;1.23;;;;;;;7.86;62.48;102036.44;4926481;28;118102;-73
2021/11/22 02:07:43;;;;;;;2.03;1.00;;;;;;;7.87;62.09;102040.81;4944652;28;123909;-73
2021/11/22 02:10:11;;;;;;;2.47;1.40;;;;;;;7.87;62.34;102038.19;4929330;28;123108;-73
2021/11/22 02:12:39;;;;;;;5.50;1.30;;;;;;;7.86;62.58;102057.56;4945437;28;119546;-73
2021/11/22 02:15:08;;;;;;;3.67;1.30;;;;;;;7.88;62.44;102055.75;4946969;28;119595;-73
2021/11/22 02:17:38;;;;;;;4.72;1.33;;;;;;;7.90;62.55;102058.38;4943110;28;123845;-73
2021/11/22 02:20:09;;;;;;;3.17;1.30;;;;;;;7.91;62.92;102060.09;4925992;28;123179;-73
2021/11/22 02:22:37;;;;;;;4.15;1.40;;;;;;;7.91;62.69;102061.00;4942233;28;120600;-73
2021/11/22 02:25:07;;;;;;;3.00;1.27;;;;;;;7.94;62.64;102065.34;4945483;28;119196;-73
2021/11/22 02:27:36;;;;;;;3.13;1.20;;;;;;;7.96;62.42;102072.34;4922364;28;123407;-73
2021/11/22 02:30:06;;;;;;;2.35;1.27;;;;;;;7.97;62.50;102071.47;4945485;28;124715;-73
2021/11/22 02:32:39;;;;;;;2.20;1.27;;;;;;;7.98;62.69;102078.47;4948991;28;120437;-73
2021/11/22 02:35:09;;;;;;;4.63;1.30;;;;;;;7.99;62.37;102080.22;4948552;28;118722;-73
2021/11/22 02:37:36;;;;;;;2.72;1.00;;;;;;;7.99;62.54;102074.94;4946689;28;123756;-73
2021/11/22 02:40:04;;;;;;;4.68;1.15;;;;;;;8.00;62.50;102065.25;4932615;28;124110;-73
2021/11/22 02:42:34;;;;;;;2.55;1.10;;;;;;;8.02;62.69;102070.50;4948777;28;121116;-73
2021/11/22 02:45:02;;;;;;;2.92;1.00;;;;;;;8.04;62.45;102087.19;4931287;28;120338;-73
2021/11/22 02:47:29;;;;;;;2.47;0.90;;;;;;;8.05;62.54;102073.13;4932140;28;124464;-73
2021/11/22 02:49:56;;;;;;;4.63;0.90;;;;;;;8.06;62.92;102077.47;4950100;28;123710;-73
2021/11/22 02:52:23;;;;;;;3.38;1.10;;;;;;;8.09;62.75;102080.09;4939213;28;119382;-73
2021/11/22 02:54:51;;;;;;;4.80;1.02;;;;;;;8.10;62.79;102084.47;4949964;28;119023;-73
2021/11/22 02:57:18;;;;;;;3.55;0.90;;;;;;;8.11;62.79;102091.50;4950061;28;123943;-73
2021/11/22 02:59:45;;;;;;;2.85;1.17;;;;;;;8.14;62.50;102088.81;4949629;28;123859;-74
2021/11/22 03:02:13;;;;;;;5.97;1.27;;;;;;;8.15;62.50;102094.03;4932607;28;119504;-73
2021/11/22 03:04:43;;;;;;;2.50;1.35;;;;;;;8.16;62.67;102092.31;4950033;28;119589;-73
2021/11/22 03:07:11;;;;;;;4.18;1.02;;;;;;;8.18;62.88;102095.78;4946751;28;123590;-73
2021/11/22 03:09:40;;;;;;;6.47;1.25;;;;;;;8.19;62.77;102102.78;4940918;28;123449;-73
2021/11/22 03:12:10;;;;;;;1.45;0.90;;;;;;;8.20;62.46;102107.19;4946627;28;119536;-73
2021/11/22 03:14:39;;;;;;;2.83;1.08;;;;;;;8.21;62.31;102111.56;4950003;28;119018;-73
2021/11/22 03:17:07;;;;;;;3.70;1.30;;;;;;;8.22;62.66;102118.59;4949133;28;124198;-73
2021/11/22 03:19:35;;;;;;;2.13;1.00;;;;;;;8.22;62.31;102118.59;4949040;28;123689;-73
2021/11/22 03:22:02;;;;;;;4.10;1.00;;;;;;;8.22;62.62;102129.16;4949143;28;119543;-73
2021/11/22 03:24:29;;;;;;;3.88;0.98;;;;;;;8.23;62.24;102125.63;4930003;28;117998;-73
2021/11/22 03:26:57;;;;;;;3.80;1.10;;;;;;;8.23;62.34;102125.63;4949815;28;125001;-73
2021/11/22 03:29:24;;;;;;;3.83;1.15;;;;;;;8.22;62.32;102123.88;4949888;28;124228;-73
2021/11/22 03:31:52;;;;;;;2.25;1.25;;;;;;;8.22;62.17;102137.06;4948990;28;120191;-73
2021/11/22 03:34:20;;;;;;;2.58;0.93;;;;;;;8.21;62.31;102137.94;4949080;28;119772;-73
2021/11/22 03:36:47;;;;;;;2.33;1.10;;;;;;;8.22;62.08;102141.47;4949289;28;123769;-73
2021/11/22 03:39:25;;;;;;;2.90;1.10;;;;;;;8.20;62.33;102144.13;4925746;28;121996;-73
2021/11/22 03:41:55;;;;;;;2.13;1.08;;;;;;;8.21;62.50;102143.22;4930947;28;119240;-73
2021/11/22 03:44:24;;;;;;;2.92;1.13;;;;;;;8.21;62.08;102152.91;4930162;28;118525;-73
2021/11/22 03:46:52;;;;;;;4.78;1.10;;;;;;;8.21;62.26;102153.78;4946210;28;123773;-73
2021/11/22 03:49:20;;;;;;;3.80;1.17;;;;;;;8.21;62.24;102156.41;4949097;28;123902;-73
2021/11/22 03:51:49;;;;;;;3.80;1.10;;;;;;;8.21;62.46;102153.78;4930853;28;118342;-73
2021/11/22 03:54:17;;;;;;;4.65;1.20;;;;;;;8.22;62.56;102155.53;4930212;28;118766;-73
2021/11/22 03:56:44;;;;;;;5.95;1.08;;;;;;;8.21;62.00;102153.78;4946370;28;124713;-73
2021/11/22 03:59:12;;;;;;;1.90;1.10;;;;;;;8.21;62.39;102180.19;4931449;28;123945;-73
2021/11/22 04:01:39;;;;;;;2.60;1.08;;;;;;;8.20;62.60;102162.63;4948030;28;119507;-73
2021/11/22 04:04:08;;;;;;;1.80;0.90;;;;;;;8.20;62.24;102173.16;4943343;28;118753;-73
2021/11/22 04:06:35;;;;;;;1.58;0.90;;;;;;;8.20;62.06;102178.44;4943443;28;123819;-73
2021/11/22 04:09:04;;;;;;;3.10;1.10;;;;;;;8.19;62.01;102179.31;4931174;28;123344;-73
2021/11/22 04:11:34;;;;;;;1.85;1.00;;;;;;;8.18;62.17;102174.97;4947017;28;119092;-73
2021/11/22 04:14:02;;;;;;;3.05;1.23;;;;;;;8.18;62.31;102189.03;4931657;28;118415;-73
2021/11/22 04:16:30;;;;;;;1.92;0.90;;;;;;;8.19;62.18;102197.81;4947615;28;124804;-73
2021/11/22 04:18:57;;;;;;;2.30;1.10;;;;;;;8.17;62.24;102199.59;4948361;28;124159;-73
2021/11/22 04:21:25;;;;;;;7.13;1.42;;;;;;;8.15;62.20;102198.75;4948048;28;120148;-73
2021/11/22 04:23:54;;;;;;;2.03;1.10;;;;;;;8.15;62.15;102209.28;4944145;28;120500;-73
2021/11/22 04:26:21;;;;;;;4.68;1.30;;;;;;;8.15;62.02;102210.16;4930837;28;123962;-73
2021/11/22 04:28:49;;;;;;;2.28;1.13;;;;;;;8.14;62.02;102215.47;4946857;28;123972;-73
2021/11/22 04:31:17;;;;;;;3.35;1.40;;;;;;;8.13;62.10;102221.63;4945539;28;119133;-73
2021/11/22 04:33:44;;;;;;;2.78;1.08;;;;;;;8.10;62.21;102219.03;4922663;28;118025;-73
2021/11/22 04:36:12;;;;;;;2.42;1.10;;;;;;;8.09;62.43;102241.03;4933093;28;124417;-73
2021/11/22 04:38:39;;;;;;;3.08;1.30;;;;;;;8.09;61.97;102241.03;4948891;28;124414;-72
2021/11/22 04:41:06;;;;;;;1.88;1.20;;;;;;;8.06;62.25;102248.97;4947451;28;119884;-73
2021/11/22 04:43:34;;;;;;;3.38;0.98;;;;;;;8.06;62.30;102248.97;4931472;28;119722;-73
2021/11/22 04:46:01;;;;;;;3.25;1.20;;;;;;;8.05;62.12;102247.25;4946893;28;124434;-73
2021/11/22 04:48:28;;;;;;;3.20;1.25;;;;;;;8.06;62.02;102248.97;4948333;28;124110;-73
2021/11/22 04:50:56;;;;;;;4.90;1.20;;;;;;;8.05;62.21;102257.81;4948912;28;119802;-73
2021/11/22 04:53:23;;;;;;;4.53;1.20;;;;;;;8.05;61.77;102263.09;4945523;28;118337;-72
2021/11/22 04:55:51;;;;;;;2.85;1.30;;;;;;;8.03;62.10;102262.25;4951160;28;124003;-73
2021/11/22 04:58:18;;;;;;;3.33;1.13;;;;;;;8.01;61.94;102267.53;4957812;28;123541;-73
2021/11/22 05:00:45;;;;;;;3.55;1.20;;;;;;;7.96;61.94;102270.19;4951862;28;119395;-73
2021/11/22 05:03:13;;;;;;;3.47;1.40;;;;;;;7.95;61.90;102273.75;4943480;28;119248;-73
2021/11/22 05:05:40;;;;;;;2.70;1.13;;;;;;;7.92;62.14;102273.75;4948708;28;123526;-73
2021/11/22 05:08:07;;;;;;;2.72;1.05;;;;;;;7.88;62.10;102282.59;4948924;28;123654;-73
2021/11/22 05:10:42;;;;;;;2.65;1.10;;;;;;;7.87;62.17;102280.84;4947937;28;120823;-73
2021/11/22 05:13:12;;;;;;;1.88;1.08;;;;;;;7.85;62.26;102287.91;4944562;28;119831;-72
2021/11/22 05:15:40;;;;;;;1.70;1.02;;;;;;;7.85;62.28;102285.25;4945402;28;125087;-73
2021/11/22 05:18:10;;;;;;;1.85;1.20;;;;;;;7.84;62.17;102296.72;4914221;28;123580;-72
2021/11/22 05:20:38;;;;;;;1.88;1.13;;;;;;;7.85;61.97;102302.88;4943363;28;119169;-72
2021/11/22 05:23:06;;;;;;;2.97;1.40;;;;;;;7.83;62.17;102309.91;4945816;28;118981;-73
2021/11/22 05:25:34;;;;;;;2.10;1.02;;;;;;;7.82;62.27;102309.06;4943913;28;123667;-73
2021/11/22 05:28:02;;;;;;;3.35;1.05;;;;;;;7.82;62.14;102309.06;4948636;28;123635;-73
2021/11/22 05:30:29;;;;;;;3.95;1.30;;;;;;;7.80;62.23;102316.13;4942699;28;119157;-73
2021/11/22 05:32:59;;;;;;;3.38;1.20;;;;;;;7.78;62.05;102317.91;4945297;28;118681;-73
2021/11/22 05:35:28;;;;;;;3.85;1.45;;;;;;;7.76;61.86;102314.38;4947381;28;124147;-73
2021/11/22 05:37:56;;;;;;;3.03;1.10;;;;;;;7.76;62.04;102319.63;4947083;28;122310;-72
2021/11/22 05:40:23;;;;;;;4.68;1.52;;;;;;;7.73;62.20;102324.97;4945203;28;119569;-73
2021/11/22 05:42:51;;;;;;;6.47;1.27;;;;;;;7.71;61.96;102321.47;4946922;28;119335;-72
2021/11/22 05:45:19;;;;;;;2.80;1.40;;;;;;;7.71;61.86;102337.28;4929622;28;123206;-72
2021/11/22 05:47:47;;;;;;;3.20;1.45;;;;;;;7.70;62.08;102335.53;4947202;28;123616;-72
2021/11/22 05:50:16;;;;;;;4.53;1.50;;;;;;;7.68;62.14;102342.59;4944772;28;119691;-72
2021/11/22 05:52:49;;;;;;;5.90;1.67;;;;;;;7.68;62.08;102347.84;4947032;28;119062;-73
2021/11/22 05:55:23;;;;;;;3.65;1.38;;;;;;;7.67;62.03;102351.41;4941895;28;124273;-73
2021/11/22 05:57:50;;;;;;;3.45;1.42;;;;;;;7.65;61.71;102358.41;4943124;28;124295;-73
2021/11/22 06:00:17;;;;;;;3.50;1.40;;;;;;;7.65;61.68;102363.69;4944277;28;119704;-73
2021/11/22 06:02:44;;;;;;;2.67;1.40;;;;;;;7.63;61.67;102370.75;4946671;28;120185;-72
2021/11/22 06:05:11;;;;;;;2.88;1.25;;;;;;;7.60;61.83;102367.25;4924579;28;122350;-73
2021/11/22 06:07:39;;;;;;;3.90;1.27;;;;;;;7.57;61.67;102372.56;4949890;28;122925;-73
2021/11/22 06:10:07;;;;;;;3.13;1.27;;;;;;;7.53;61.73;102376.09;4950547;28;119161;-72
2021/11/22 06:12:34;;;;;;;5.50;1.40;;;;;;;7.51;61.88;102377.00;4950480;28;118699;-73
2021/11/22 06:15:02;;;;;;;3.92;1.30;;;;;;;7.48;61.69;102383.19;4932299;28;123024;-72
2021/11/22 06:17:29;;;;;;;3.97;1.25;;;;;;;7.46;61.63;102384.97;4950976;28;123948;-73
2021/11/22 06:19:56;;;;;;;2.40;1.58;;;;;;;7.43;61.96;102392.00;4950422;28;118410;-73
2021/11/22 06:22:24;;;;;;;4.95;1.33;;;;;;;7.40;61.77;102395.50;4950657;28;118867;-72
2021/11/22 06:24:51;;;;;;;3.70;1.30;;;;;;;7.40;61.72;102390.25;4948261;28;124667;-73
2021/11/22 06:27:18;;;;;;;3.42;1.30;;;;;;;7.38;61.73;102405.19;4950303;28;124268;-72
2021/11/22 06:29:46;;;;;;;3.75;1.48;;;;;;;7.37;61.88;102406.09;4949035;28;119131;-73
2021/11/22 06:32:13;;;;;;;3.83;1.23;;;;;;;7.36;61.91;102404.34;4932014;28;118832;-72
2021/11/22 06:34:41;;;;;;;3.33;1.40;;;;;;;7.33;61.89;102404.38;4932729;28;123068;-72
2021/11/22 06:37:08;;;;;;;3.03;1.30;;;;;;;7.32;61.85;102407.88;4950128;28;123855;-72
2021/11/22 06:39:37;;;;;;;3.17;1.35;;;;;;;7.30;61.76;102414.94;4947779;28;119979;-72
2021/11/22 06:42:08;;;;;;;2.83;1.30;;;;;;;7.27;61.98;102409.66;4948375;28;118908;-72
2021/11/22 06:44:35;;;;;;;2.22;1.27;;;;;;;7.26;62.08;102413.19;4946919;28;124038;-72
2021/11/22 06:47:03;;;;;;;3.08;1.30;;;;;;;7.25;61.99;102414.06;4950447;28;123826;-72
2021/11/22 06:49:31;;;;;;;2.38;1.58;;;;;;;7.22;61.86;102413.22;4949002;28;119802;-72
2021/11/22 06:51:58;;;;;;;3.42;1.40;;;;;;;7.22;61.99;102428.16;4945472;28;119758;-72
2021/11/22 06:54:25;;;;;;;4.07;1.63;;;;;;;7.21;61.75;102427.28;4931406;28;124049;-72
2021/11/22 06:56:53;;;;;;;5.28;1.60;;;;;;;7.20;61.74;102436.06;4947761;28;122453;-73
2021/11/22 06:59:20;;;;;;;4.47;1.40;;;;;;;7.20;62.10;102441.31;4928993;28;118980;-73
2021/11/22 07:01:47;;;;;;;2.13;1.30;;;;;;;7.18;61.83;102448.38;4948835;28;118445;-73
2021/11/22 07:04:14;;;;;;;4.22;1.55;;;;;;;7.17;61.56;102451.88;4931501;28;123772;-73
2021/11/22 07:06:41;;;;;;;4.88;1.40;;;;;;;7.14;61.96;102465.09;4946369;28;123680;-73
2021/11/22 07:09:08;;;;;;;2.65;1.45;;;;;;;7.12;61.66;102458.94;4947983;28;119551;-72
2021/11/22 07:11:36;;;;;;;3.42;1.70;;;;;;;7.08;61.63;102465.09;4930660;28;118365;-72
2021/11/22 07:14:04;;;;;;;2.70;1.45;;;;;;;7.04;61.79;102473.88;4949072;28;123089;-73
2021/11/22 07:16:32;;;;;;;3.63;2.00;;;;;;;7.02;61.93;102473.03;4914895;28;123060;-72
2021/11/22 07:19:00;;;;;;;6.57;1.98;;;;;;;7.02;62.00;102486.19;4947283;28;119461;-72
2021/11/22 07:21:28;;;;;;;2.83;1.45;;;;;;;6.99;61.66;102483.59;4931890;28;117493;-72
2021/11/22 07:23:55;;;;;;;5.80;1.75;;;;;;;6.99;61.71;102491.50;4947256;28;124697;-72
2021/11/22 07:26:22;;;;;;;3.63;1.63;;;;;;;6.97;61.70;102498.53;4947606;28;123562;-72
2021/11/22 07:28:49;;;;;;;4.55;1.45;;;;;;;6.96;61.88;102504.66;4932485;28;119079;-72
2021/11/22 07:31:16;;;;;;;5.72;1.80;;;;;;;6.93;61.99;102504.66;4932606;28;121357;-72
2021/11/22 07:33:44;;;;;;;3.65;1.80;;;;;;;6.92;62.11;102513.47;4931377;28;123073;-72
2021/11/22 07:36:11;;;;;;;6.95;1.67;;;;;;;6.93;61.70;102520.47;4949295;28;123448;-72
2021/11/22 07:38:39;;;;;;;4.82;1.50;;;;;;;6.94;62.07;102516.97;4948345;28;120321;-72
2021/11/22 07:41:06;;;;;;;5.80;2.10;;;;;;;6.93;61.82;102536.28;4931352;28;119549;-72
2021/11/22 07:43:33;;;;;;;4.57;1.88;;;;;;;6.93;62.10;102536.28;4948080;28;123684;-72
2021/11/22 07:46:00;;;;;;;4.32;1.60;;;;;;;6.92;62.08;102539.81;4947125;28;123823;-72
2021/11/22 07:48:28;;;;;;;4.50;1.70;;;;;;;6.92;61.85;102545.94;4947683;28;119177;-72
2021/11/22 07:50:55;;;;;;;3.50;1.95;;;;;;;6.91;62.01;102554.75;4948363;28;118931;-71
2021/11/22 07:53:35;;;;;;;3.80;1.85;;;;;;;6.92;61.99;102566.13;4943362;28;123969;-72
2021/11/22 07:56:03;;;;;;;8.65;2.40;;;;;;;6.92;62.03;102563.50;4929393;28;124729;-71
2021/11/22 07:58:30;;;;;;;3.58;1.77;;;;;;;6.93;62.45;102567.88;4947295;28;119305;-72
2021/11/22 08:00:58;;;;;;;5.05;1.80;;;;;;;6.94;62.10;102569.66;4945782;28;118742;-71
2021/11/22 08:03:26;;;;;;;3.10;1.65;;;;;;;6.94;62.24;102570.50;4930087;28;124252;-72
2021/11/22 08:05:57;;;;;;;2.97;1.70;;;;;;;6.96;62.35;102574.00;4936141;28;124315;-72
2021/11/22 08:08:28;;;;;;;3.05;1.60;;;;;;;6.99;62.52;102579.28;4930234;28;118944;-71
2021/11/22 08:13:35;;;;;;;8.35;2.17;;;;;;;7.04;62.28;102581.91;4943902;28;123400;-72
2021/11/22 08:16:04;;;;;;;3.75;2.05;;;;;;;7.07;62.36;102581.91;4946950;28;123687;-72
2021/11/22 08:18:32;;;;;;;4.07;1.58;;;;;;;7.11;62.55;102583.66;4928786;28;119072;-72
2021/11/22 08:20:59;;;;;;;6.45;1.73;;;;;;;7.13;62.51;102587.16;4949331;28;119453;-72
2021/11/22 08:23:26;;;;;;;4.90;1.88;;;;;;;7.17;62.69;102588.88;4929922;28;124379;-71
2021/11/22 08:25:54;;;;;;;3.85;1.50;;;;;;;7.19;62.61;102587.13;4948202;28;123835;-72
2021/11/22 08:28:23;;;;;;;4.18;1.60;;;;;;;7.24;62.39;102595.03;4945236;28;121505;-73
2021/11/22 08:30:51;;;;;;;4.82;1.70;;;;;;;7.26;62.42;102597.66;4949624;28;118608;-72
2021/11/22 08:33:18;;;;;;;4.13;1.67;;;;;;;7.31;62.68;102601.16;4952282;28;124618;-72
2021/11/22 08:35:46;;;;;;;3.63;1.67;;;;;;;7.33;62.47;102602.91;4933675;28;123945;-72
2021/11/22 08:38:15;;;;;;;2.67;1.40;;;;;;;7.37;62.60;102595.88;4919144;28;118562;-72
2021/11/22 08:40:44;;;;;;;3.88;1.42;;;;;;;7.41;62.51;102598.47;4950633;28;117852;-72
2021/11/22 08:43:14;;;;;;;3.38;1.58;;;;;;;7.44;62.43;102602.88;4929721;28;123727;-72
2021/11/22 08:45:44;;;;;;;2.90;1.83;;;;;;;7.50;62.70;102607.25;4949247;28;125558;-72
2021/11/22 08:48:12;;;;;;;6.93;1.70;;;;;;;7.53;62.62;102618.66;4949696;28;119033;-72
2021/11/22 08:50:39;;;;;;;2.30;1.50;;;;;;;7.57;62.80;102615.13;4946687;28;118528;-71
2021/11/22 08:53:06;;;;;;;3.55;1.60;;;;;;;7.64;62.57;102615.09;4931099;28;123354;-71
2021/11/22 08:55:34;;;;;;;4.63;1.90;;;;;;;7.69;62.53;102623.88;4948968;28;124555;-72
2021/11/22 08:58:01;;;;;;;5.13;1.67;;;;;;;7.73;62.62;102626.47;4926784;28;118452;-72
2021/11/22 09:00:32;;;;;;;4.63;1.40;;;;;;;7.78;62.46;102629.13;4929306;28;117935;-72
2021/11/22 09:03:00;;;;;;;5.30;1.77;;;;;;;7.83;62.70;102637.88;4925421;28;123665;-72
2021/11/22 09:05:27;;;;;;;5.65;1.80;;;;;;;7.89;62.04;102637.88;4931586;28;123574;-71
2021/11/22 09:07:54;;;;;;;3.95;1.83;;;;;;;7.94;62.74;102641.31;4936593;28;119888;-72
2021/11/22 09:10:23;;;;;;;6.07;2.20;;;;;;;7.98;62.75;102642.19;4945753;28;119125;-72
2021/11/22 09:12:51;;;;;;;3.90;1.90;;;;;;;8.04;62.54;102651.84;4912900;28;125126;-72
2021/11/22 09:15:18;;;;;;;4.70;1.60;;;;;;;8.09;62.64;102655.34;4929736;28;123522;-71
2021/11/22 09:17:46;;;;;;;3.55;1.80;;;;;;;8.14;62.64;102658.84;4939799;28;120194;-72
2021/11/22 09:20:14;;;;;;;3.47;1.70;;;;;;;8.21;62.88;102659.66;4934567;28;119984;-72
2021/11/22 09:22:41;;;;;;;3.85;1.65;;;;;;;8.27;62.35;102659.63;4931564;28;123817;-72
2021/11/22 09:25:10;;;;;;;4.07;2.10;;;;;;;8.32;62.77;102663.97;4930716;28;122951;-72
2021/11/22 09:27:37;;;;;;;3.53;1.70;;;;;;;8.37;62.39;102662.19;4930898;28;117373;-72
2021/11/22 09:30:07;;;;;;;4.07;1.75;;;;;;;8.44;62.77;102667.47;4949132;28;118761;-72
2021/11/22 09:32:35;;;;;;;4.25;1.80;;;;;;;8.50;62.68;102667.44;4932845;28;123758;-72
2021/11/22 09:35:02;;;;;;;5.68;1.50;;;;;;;8.55;62.39;102670.91;4950762;28;123425;-72
2021/11/22 09:37:30;;;;;;;4.85;1.60;;;;;;;8.61;62.68;102673.53;4947950;28;119865;-72
2021/11/22 09:39:57;;;;;;;4.13;1.80;;;;;;;8.65;62.39;102677.91;4929014;28;118869;-72
2021/11/22 09:42:24;;;;;;;2.08;1.33;;;;;;;8.71;62.20;102679.59;4935981;28;124034;-72
2021/11/22 09:44:52;;;;;;;3.25;1.60;;;;;;;8.76;62.23;102678.69;4952344;28;124099;-72
2021/11/22 09:47:19;;;;;;;2.83;1.80;;;;;;;8.83;62.38;102681.28;4940253;28;118674;-72
2021/11/22 09:49:46;;;;;;;5.32;1.80;;;;;;;8.88;62.25;102690.03;4944189;28;118432;-72
2021/11/22 09:52:14;;;;;;;3.53;1.63;;;;;;;8.93;62.16;102688.25;4945944;28;124211;-72
2021/11/22 09:54:42;;;;;;;2.90;1.70;;;;;;;8.99;62.35;102693.47;4944721;28;123945;-72
2021/11/22 09:57:12;;;;;;;3.65;1.50;;;;;;;9.04;62.44;102691.69;4961032;28;118627;-72
2021/11/22 09:59:39;;;;;;;2.95;1.65;;;;;;;9.09;62.16;102697.78;4947067;28;119329;-72
2021/11/22 10:02:06;;;;;;;3.45;1.80;;;;;;;9.18;62.27;102698.59;4954194;28;123722;-72
2021/11/22 10:04:34;;;;;;;4.22;1.88;;;;;;;9.24;62.21;102703.81;4936504;28;124639;-71
2021/11/22 10:07:05;;;;;;;4.75;1.60;;;;;;;9.30;62.22;102698.47;4951976;28;120098;-72
2021/11/22 10:09:32;;;;;;;4.00;1.38;;;;;;;9.35;61.92;102691.38;4931656;28;119339;-72
2021/11/22 10:12:12;;;;;;;2.45;1.30;;;;;;;9.40;61.80;102705.44;4954627;28;123757;-72
2021/11/22 10:14:47;;;;;;;4.97;1.48;;;;;;;9.43;61.54;102694.81;4950600;28;125001;-73
2021/11/22 10:17:19;;;;;;;4.85;1.60;;;;;;;9.48;61.67;102689.47;4929446;28;118284;-72
2021/11/22 10:19:46;;;;;;;4.50;1.70;;;;;;;9.53;61.85;102693.84;4927258;28;118363;-72
2021/11/22 10:22:20;;;;;;;4.38;1.50;;;;;;;9.59;61.48;102695.53;4958266;28;122905;-73
2021/11/22 10:25:13;;;;;;;4.82;1.40;;;;;;;9.63;61.62;102691.09;4953655;28;124280;-74
2021/11/22 10:27:40;;;;;;;3.75;1.35;;;;;;;9.67;61.44;102687.50;4949387;28;118995;-71
2021/11/22 10:30:21;;;;;;;2.38;1.27;;;;;;;9.70;61.16;102692.75;4949997;28;118854;-71
2021/11/22 10:32:56;;;;;;;3.88;1.30;;;;;;;9.72;60.75;102690.97;4950855;28;124297;-71
2021/11/22 10:35:24;;;;;;;;;;;;;;;9.71;61.07;102699.81;4933092;28;124683;-71
2021/11/22 10:38:14;;;;;;;5.00;1.20;;;;;;;9.74;61.06;102695.34;4933739;28;118735;-71
2021/11/22 10:40:45;;;;;;;4.13;1.60;;;;;;;9.78;61.02;102706.78;4929594;28;117897;-71
2021/11/22 10:43:13;;;;;;;3.25;1.45;;;;;;;9.80;60.86;102702.34;4926766;28;123266;-71
2021/11/22 10:45:47;;;;;;;4.78;1.50;;;;;;;9.84;60.63;102700.53;4933568;28;123605;-71
2021/11/22 10:48:21;;;;;;;5.35;1.48;;;;;;;9.88;60.88;102703.13;4947687;28;119865;-71
2021/11/22 10:51:00;;;;;;;2.70;1.40;;;;;;;9.93;60.79;102706.59;4948503;28;119079;-71
2021/11/22 10:53:30;;;;;;;5.55;1.50;;;;;;;9.99;60.64;102704.78;4948720;28;123927;-71
2021/11/22 10:55:58;;;;;;;3.85;1.67;;;;;;;10.04;60.63;102698.53;4950780;28;124557;-71
2021/11/22 10:58:36;;;;;;;5.03;1.30;;;;;;;10.09;60.53;102695.81;4950126;28;120139;-71
2021/11/22 11:01:14;;;;;;;3.42;1.48;;;;;;;10.13;60.55;102695.75;4932272;28;119164;-73
2021/11/22 11:03:55;;;;;;;2.67;1.23;;;;;;;10.18;60.47;102698.31;4936494;28;123230;-72
2021/11/22 11:06:47;;;;;;;3.72;1.23;;;;;;;10.23;60.48;102699.16;4931670;28;122998;-71
2021/11/22 11:09:29;;;;;;;2.72;1.23;;;;;;;10.28;60.03;102697.31;4923162;28;118629;-71
2021/11/22 11:12:04;;;;;;;2.38;1.33;;;;;;;10.34;60.18;102701.69;4913567;28;118482;-71
2021/11/22 11:14:33;;;;;;;3.28;1.20;;;;;;;10.38;60.06;102708.69;4928535;28;123558;-71
2021/11/22 11:17:31;;;;;;;1.77;1.15;;;;;;;10.46;60.23;102708.56;4944881;28;123721;-71
2021/11/22 11:20:06;;;;;;;3.15;1.30;;;;;;;10.51;59.84;102701.44;4925863;28;119252;-72
2021/11/22 11:22:34;;;;;;;3.75;1.33;;;;;;;10.58;59.69;102711.03;4947575;28;119243;-71
2021/11/22 11:25:03;;;;;;;2.05;1.13;;;;;;;10.63;59.88;102708.31;4932548;28;124541;-71
2021/11/22 11:27:41;;;;;;;4.05;1.42;;;;;;;10.68;59.80;102702.06;4930561;28;124799;-72
2021/11/22 11:30:11;;;;;;;3.15;1.23;;;;;;;10.73;59.50;102703.75;4927114;28;119128;-71
2021/11/22 11:32:44;;;;;;;1.83;0.90;;;;;;;10.80;59.31;102708.06;4947266;28;118903;-71
2021/11/22 11:35:17;;;;;;;3.47;1.17;;;;;;;10.84;59.00;102707.97;4941139;28;124371;-72